sensor_id;sensor_type;location;lat;lon;timestamp;temperature;humidity
42135;DHT22;28312;43.460;11.810;2023-04-22T00:00:04;7.80;60.10
42135;DHT22;28312;43.460;11.810;2023-04-22T00:04:11;7.70;60.00
42135;DHT22;28312;43.460;11.810;2023-04-22T00:08:16;7.70;60.10
42135;DHT22;28312;43.460;11.810;2023-04-22T00:12:21;7.70;60.20
42135;DHT22;28312;43.460;11.810;2023-04-22T00:16:25;7.50;60.50
42135;DHT22;28312;43.460;11.810;2023-04-22T00:20:31;7.50;60.60
42135;DHT22;28312;43.460;11.810;2023-04-22T00:24:38;7.40;60.60
42135;DHT22;28312;43.460;11.810;2023-04-22T00:28:41;7.30;60.70
42135;DHT22;28312;43.460;11.810;2023-04-22T00:32:45;7.30;60.90
42135;DHT22;28312;43.460;11.810;2023-04-22T00:36:48;7.30;60.80
42135;DHT22;28312;43.460;11.810;2023-04-22T00:40:53;7.30;60.90
42135;DHT22;28312;43.460;11.810;2023-04-22T00:44:57;7.20;60.90
42135;DHT22;28312;43.460;11.810;2023-04-22T00:49:01;7.30;60.90
42135;DHT22;28312;43.460;11.810;2023-04-22T00:53:05;7.20;60.90
42135;DHT22;28312;43.460;11.810;2023-04-22T00:57:09;7.20;61.00
42135;DHT22;28312;43.460;11.810;2023-04-22T01:01:15;7.20;61.00
42135;DHT22;28312;43.460;11.810;2023-04-22T01:05:19;7.20;60.90
42135;DHT22;28312;43.460;11.810;2023-04-22T01:09:23;7.10;61.10
42135;DHT22;28312;43.460;11.810;2023-04-22T01:13:27;7.00;61.40
42135;DHT22;28312;43.460;11.810;2023-04-22T01:17:32;7.00;61.50
42135;DHT22;28312;43.460;11.810;2023-04-22T01:21:38;7.00;61.30
42135;DHT22;28312;43.460;11.810;2023-04-22T01:25:44;6.90;61.50
42135;DHT22;28312;43.460;11.810;2023-04-22T01:29:48;6.80;61.70
42135;DHT22;28312;43.460;11.810;2023-04-22T01:33:52;6.80;61.70
42135;DHT22;28312;43.460;11.810;2023-04-22T01:37:55;6.80;61.60
42135;DHT22;28312;43.460;11.810;2023-04-22T01:42:01;6.80;61.60
42135;DHT22;28312;43.460;11.810;2023-04-22T01:46:05;6.80;61.70
42135;DHT22;28312;43.460;11.810;2023-04-22T01:50:10;6.80;61.70
42135;DHT22;28312;43.460;11.810;2023-04-22T01:54:14;6.80;61.60
42135;DHT22;28312;43.460;11.810;2023-04-22T01:58:20;6.80;61.70
42135;DHT22;28312;43.460;11.810;2023-04-22T02:02:24;6.70;61.60
42135;DHT22;28312;43.460;11.810;2023-04-22T02:06:28;6.70;61.70
42135;DHT22;28312;43.460;11.810;2023-04-22T02:10:31;6.70;61.80
42135;DHT22;28312;43.460;11.810;2023-04-22T02:14:35;6.70;61.80
42135;DHT22;28312;43.460;11.810;2023-04-22T02:18:39;6.70;61.90
42135;DHT22;28312;43.460;11.810;2023-04-22T02:22:43;6.70;61.90
42135;DHT22;28312;43.460;11.810;2023-04-22T02:26:47;6.60;62.00
42135;DHT22;28312;43.460;11.810;2023-04-22T02:30:52;6.60;62.00
42135;DHT22;28312;43.460;11.810;2023-04-22T02:34:57;6.60;62.10
42135;DHT22;28312;43.460;11.810;2023-04-22T02:39:04;6.60;62.10
42135;DHT22;28312;43.460;11.810;2023-04-22T02:43:10;6.60;61.90
42135;DHT22;28312;43.460;11.810;2023-04-22T02:47:14;6.50;62.00
42135;DHT22;28312;43.460;11.810;2023-04-22T02:51:17;6.60;62.20
42135;DHT22;28312;43.460;11.810;2023-04-22T02:55:21;6.50;62.30
42135;DHT22;28312;43.460;11.810;2023-04-22T02:59:30;6.50;62.30
42135;DHT22;28312;43.460;11.810;2023-04-22T03:03:34;6.50;62.40
42135;DHT22;28312;43.460;11.810;2023-04-22T03:07:39;6.50;62.30
42135;DHT22;28312;43.460;11.810;2023-04-22T03:11:43;6.50;62.40
42135;DHT22;28312;43.460;11.810;2023-04-22T03:15:47;6.40;62.50
42135;DHT22;28312;43.460;11.810;2023-04-22T03:19:50;6.50;62.50
42135;DHT22;28312;43.460;11.810;2023-04-22T03:23:56;6.50;62.40
42135;DHT22;28312;43.460;11.810;2023-04-22T03:27:59;6.40;62.40
42135;DHT22;28312;43.460;11.810;2023-04-22T03:32:03;6.30;62.40
42135;DHT22;28312;43.460;11.810;2023-04-22T03:36:07;6.40;62.40
42135;DHT22;28312;43.460;11.810;2023-04-22T03:40:12;6.30;62.30
42135;DHT22;28312;43.460;11.810;2023-04-22T03:44:17;6.30;62.20
42135;DHT22;28312;43.460;11.810;2023-04-22T03:48:24;6.20;62.30
42135;DHT22;28312;43.460;11.810;2023-04-22T03:52:29;6.20;62.30
42135;DHT22;28312;43.460;11.810;2023-04-22T03:56:37;6.00;62.50
42135;DHT22;28312;43.460;11.810;2023-04-22T04:00:41;5.90;62.60
42135;DHT22;28312;43.460;11.810;2023-04-22T04:04:50;5.90;62.60
42135;DHT22;28312;43.460;11.810;2023-04-22T04:08:54;5.90;62.70
42135;DHT22;28312;43.460;11.810;2023-04-22T04:12:58;5.90;62.80
42135;DHT22;28312;43.460;11.810;2023-04-22T04:17:07;5.80;63.10
42135;DHT22;28312;43.460;11.810;2023-04-22T04:21:12;5.70;63.00
42135;DHT22;28312;43.460;11.810;2023-04-22T04:25:22;5.70;63.20
42135;DHT22;28312;43.460;11.810;2023-04-22T04:29:28;5.60;63.10
42135;DHT22;28312;43.460;11.810;2023-04-22T04:33:41;5.70;63.00
42135;DHT22;28312;43.460;11.810;2023-04-22T04:37:45;5.70;63.00
42135;DHT22;28312;43.460;11.810;2023-04-22T04:41:50;5.70;63.10
42135;DHT22;28312;43.460;11.810;2023-04-22T04:45:58;5.70;63.20
42135;DHT22;28312;43.460;11.810;2023-04-22T04:50:10;5.70;63.30
42135;DHT22;28312;43.460;11.810;2023-04-22T04:54:19;5.70;63.40
42135;DHT22;28312;43.460;11.810;2023-04-22T04:58:24;5.80;63.50
42135;DHT22;28312;43.460;11.810;2023-04-22T05:02:42;5.80;63.60
42135;DHT22;28312;43.460;11.810;2023-04-22T05:06:48;5.80;63.70
42135;DHT22;28312;43.460;11.810;2023-04-22T05:10:53;6.00;63.70
42135;DHT22;28312;43.460;11.810;2023-04-22T05:14:56;6.10;63.80
42135;DHT22;28312;43.460;11.810;2023-04-22T05:19:00;6.20;64.20
42135;DHT22;28312;43.460;11.810;2023-04-22T05:23:04;6.40;64.40
42135;DHT22;28312;43.460;11.810;2023-04-22T05:27:09;6.70;64.60
42135;DHT22;28312;43.460;11.810;2023-04-22T05:31:12;6.80;64.60
42135;DHT22;28312;43.460;11.810;2023-04-22T05:35:16;7.20;64.60
42135;DHT22;28312;43.460;11.810;2023-04-22T05:39:20;7.40;64.50
42135;DHT22;28312;43.460;11.810;2023-04-22T05:43:25;7.60;64.50
42135;DHT22;28312;43.460;11.810;2023-04-22T05:47:45;7.90;64.50
42135;DHT22;28312;43.460;11.810;2023-04-22T05:51:49;8.10;64.40
42135;DHT22;28312;43.460;11.810;2023-04-22T05:55:58;8.30;64.70
42135;DHT22;28312;43.460;11.810;2023-04-22T06:00:03;8.70;65.10
42135;DHT22;28312;43.460;11.810;2023-04-22T06:04:17;9.10;65.30
42135;DHT22;28312;43.460;11.810;2023-04-22T06:08:21;9.70;65.30
42135;DHT22;28312;43.460;11.810;2023-04-22T06:12:25;10.20;65.70
42135;DHT22;28312;43.460;11.810;2023-04-22T06:16:29;11.00;65.90
42135;DHT22;28312;43.460;11.810;2023-04-22T06:20:33;11.70;65.60
42135;DHT22;28312;43.460;11.810;2023-04-22T06:24:38;12.50;65.40
42135;DHT22;28312;43.460;11.810;2023-04-22T06:28:41;13.20;64.60
42135;DHT22;28312;43.460;11.810;2023-04-22T06:32:52;13.90;64.00
42135;DHT22;28312;43.460;11.810;2023-04-22T06:36:57;14.30;63.50
42135;DHT22;28312;43.460;11.810;2023-04-22T06:41:00;14.60;63.50
42135;DHT22;28312;43.460;11.810;2023-04-22T06:45:09;14.80;63.60
42135;DHT22;28312;43.460;11.810;2023-04-22T06:49:50;15.20;63.50
42135;DHT22;28312;43.460;11.810;2023-04-22T06:54:03;15.90;62.80
42135;DHT22;28312;43.460;11.810;2023-04-22T06:58:07;16.30;62.50
42135;DHT22;28312;43.460;11.810;2023-04-22T07:02:10;16.70;62.50
42135;DHT22;28312;43.460;11.810;2023-04-22T07:06:15;17.10;62.30
42135;DHT22;28312;43.460;11.810;2023-04-22T07:10:18;17.40;62.30
42135;DHT22;28312;43.460;11.810;2023-04-22T07:14:48;17.70;62.40
42135;DHT22;28312;43.460;11.810;2023-04-22T07:18:52;18.00;62.40
42135;DHT22;28312;43.460;11.810;2023-04-22T07:22:55;18.20;62.20
42135;DHT22;28312;43.460;11.810;2023-04-22T07:27:00;18.60;61.80
42135;DHT22;28312;43.460;11.810;2023-04-22T07:31:04;19.20;61.10
42135;DHT22;28312;43.460;11.810;2023-04-22T07:35:08;19.60;60.40
42135;DHT22;28312;43.460;11.810;2023-04-22T07:39:11;19.80;60.00
42135;DHT22;28312;43.460;11.810;2023-04-22T07:43:15;19.90;59.90
42135;DHT22;28312;43.460;11.810;2023-04-22T07:47:19;19.70;60.10
42135;DHT22;28312;43.460;11.810;2023-04-22T07:51:23;19.60;60.70
42135;DHT22;28312;43.460;11.810;2023-04-22T07:55:28;19.60;61.10
42135;DHT22;28312;43.460;11.810;2023-04-22T07:59:31;19.60;61.20
42135;DHT22;28312;43.460;11.810;2023-04-22T08:03:35;19.70;60.90
42135;DHT22;28312;43.460;11.810;2023-04-22T08:07:38;19.90;60.70
42135;DHT22;28312;43.460;11.810;2023-04-22T08:11:42;20.00;60.50
42135;DHT22;28312;43.460;11.810;2023-04-22T08:15:47;20.10;60.50
42135;DHT22;28312;43.460;11.810;2023-04-22T08:19:51;20.20;60.20
42135;DHT22;28312;43.460;11.810;2023-04-22T08:23:54;20.30;60.20
42135;DHT22;28312;43.460;11.810;2023-04-22T08:27:58;20.30;60.10
42135;DHT22;28312;43.460;11.810;2023-04-22T08:32:01;20.40;60.10
42135;DHT22;28312;43.460;11.810;2023-04-22T08:36:08;20.50;59.60
42135;DHT22;28312;43.460;11.810;2023-04-22T08:40:12;20.60;59.50
42135;DHT22;28312;43.460;11.810;2023-04-22T08:44:16;20.60;59.00
42135;DHT22;28312;43.460;11.810;2023-04-22T08:48:21;20.70;59.20
42135;DHT22;28312;43.460;11.810;2023-04-22T08:52:26;20.80;59.10
42135;DHT22;28312;43.460;11.810;2023-04-22T08:56:30;21.00;58.60
42135;DHT22;28312;43.460;11.810;2023-04-22T09:00:34;21.00;58.70
42135;DHT22;28312;43.460;11.810;2023-04-22T09:04:39;21.10;58.20
42135;DHT22;28312;43.460;11.810;2023-04-22T09:08:43;21.00;58.20
42135;DHT22;28312;43.460;11.810;2023-04-22T09:12:47;21.00;58.30
42135;DHT22;28312;43.460;11.810;2023-04-22T09:16:51;21.10;58.60
42135;DHT22;28312;43.460;11.810;2023-04-22T09:20:55;21.50;58.20
42135;DHT22;28312;43.460;11.810;2023-04-22T09:24:59;21.70;57.70
42135;DHT22;28312;43.460;11.810;2023-04-22T09:29:03;21.90;57.90
42135;DHT22;28312;43.460;11.810;2023-04-22T09:33:11;22.20;57.80
42135;DHT22;28312;43.460;11.810;2023-04-22T09:37:28;22.60;56.80
42135;DHT22;28312;43.460;11.810;2023-04-22T09:41:54;22.80;56.60
42135;DHT22;28312;43.460;11.810;2023-04-22T09:45:58;23.10;56.50
42135;DHT22;28312;43.460;11.810;2023-04-22T09:50:03;23.20;56.10
42135;DHT22;28312;43.460;11.810;2023-04-22T09:54:09;23.20;55.70
42135;DHT22;28312;43.460;11.810;2023-04-22T09:58:15;23.20;55.50
42135;DHT22;28312;43.460;11.810;2023-04-22T10:02:27;23.10;55.10
42135;DHT22;28312;43.460;11.810;2023-04-22T10:06:32;23.10;55.10
42135;DHT22;28312;43.460;11.810;2023-04-22T10:10:36;23.10;55.50
42135;DHT22;28312;43.460;11.810;2023-04-22T10:14:40;23.20;55.60
42135;DHT22;28312;43.460;11.810;2023-04-22T10:18:44;23.30;54.30
42135;DHT22;28312;43.460;11.810;2023-04-22T10:22:52;23.30;54.10
42135;DHT22;28312;43.460;11.810;2023-04-22T10:26:58;23.50;54.20
42135;DHT22;28312;43.460;11.810;2023-04-22T10:31:05;23.70;54.10
42135;DHT22;28312;43.460;11.810;2023-04-22T10:35:13;23.70;53.60
42135;DHT22;28312;43.460;11.810;2023-04-22T10:39:18;23.80;53.70
42135;DHT22;28312;43.460;11.810;2023-04-22T10:43:46;23.80;53.30
42135;DHT22;28312;43.460;11.810;2023-04-22T10:47:50;24.00;52.90
42135;DHT22;28312;43.460;11.810;2023-04-22T10:51:55;24.20;52.20
42135;DHT22;28312;43.460;11.810;2023-04-22T10:56:00;24.30;50.50
42135;DHT22;28312;43.460;11.810;2023-04-22T11:00:25;24.50;51.20
42135;DHT22;28312;43.460;11.810;2023-04-22T11:04:37;24.80;51.10
42135;DHT22;28312;43.460;11.810;2023-04-22T11:08:47;25.10;50.90
42135;DHT22;28312;43.460;11.810;2023-04-22T11:12:50;25.20;50.40
42135;DHT22;28312;43.460;11.810;2023-04-22T11:16:54;25.10;49.80
42135;DHT22;28312;43.460;11.810;2023-04-22T11:21:05;25.10;50.10
42135;DHT22;28312;43.460;11.810;2023-04-22T11:25:09;25.50;50.20
42135;DHT22;28312;43.460;11.810;2023-04-22T11:29:13;25.60;49.40
42135;DHT22;28312;43.460;11.810;2023-04-22T11:33:17;25.60;49.10
42135;DHT22;28312;43.460;11.810;2023-04-22T11:37:21;25.40;49.70
42135;DHT22;28312;43.460;11.810;2023-04-22T11:41:26;25.50;49.30
42135;DHT22;28312;43.460;11.810;2023-04-22T11:45:33;25.60;48.90
42135;DHT22;28312;43.460;11.810;2023-04-22T11:49:40;25.60;48.10
42135;DHT22;28312;43.460;11.810;2023-04-22T11:53:49;25.50;48.30
42135;DHT22;28312;43.460;11.810;2023-04-22T11:58:07;25.60;48.80
42135;DHT22;28312;43.460;11.810;2023-04-22T12:02:11;25.70;49.20
42135;DHT22;28312;43.460;11.810;2023-04-22T12:06:15;26.00;48.50
42135;DHT22;28312;43.460;11.810;2023-04-22T12:10:22;26.00;47.80
42135;DHT22;28312;43.460;11.810;2023-04-22T12:14:35;26.10;47.60
42135;DHT22;28312;43.460;11.810;2023-04-22T12:19:03;26.00;47.50
42135;DHT22;28312;43.460;11.810;2023-04-22T12:23:03;26.00;47.40
42135;DHT22;28312;43.460;11.810;2023-04-22T12:27:09;25.80;47.50
42135;DHT22;28312;43.460;11.810;2023-04-22T12:31:14;25.90;47.70
42135;DHT22;28312;43.460;11.810;2023-04-22T12:35:17;26.00;47.70
42135;DHT22;28312;43.460;11.810;2023-04-22T12:39:21;26.10;47.40
42135;DHT22;28312;43.460;11.810;2023-04-22T12:43:24;26.30;47.30
42135;DHT22;28312;43.460;11.810;2023-04-22T12:47:28;26.30;47.30
42135;DHT22;28312;43.460;11.810;2023-04-22T12:51:32;26.30;46.80
42135;DHT22;28312;43.460;11.810;2023-04-22T12:55:36;26.10;46.90
42135;DHT22;28312;43.460;11.810;2023-04-22T12:59:40;25.90;46.90
42135;DHT22;28312;43.460;11.810;2023-04-22T13:03:44;25.90;47.30
42135;DHT22;28312;43.460;11.810;2023-04-22T13:07:48;26.10;47.30
42135;DHT22;28312;43.460;11.810;2023-04-22T13:12:08;26.20;47.40
42135;DHT22;28312;43.460;11.810;2023-04-22T13:16:12;26.60;47.20
42135;DHT22;28312;43.460;11.810;2023-04-22T13:20:18;26.90;47.00
42135;DHT22;28312;43.460;11.810;2023-04-22T13:24:23;26.90;45.50
42135;DHT22;28312;43.460;11.810;2023-04-22T13:28:27;26.60;45.50
42135;DHT22;28312;43.460;11.810;2023-04-22T13:32:30;26.50;46.00
42135;DHT22;28312;43.460;11.810;2023-04-22T13:36:35;26.60;46.10
42135;DHT22;28312;43.460;11.810;2023-04-22T13:40:38;26.70;45.20
42135;DHT22;28312;43.460;11.810;2023-04-22T13:44:42;26.70;45.10
42135;DHT22;28312;43.460;11.810;2023-04-22T13:48:45;26.90;44.90
42135;DHT22;28312;43.460;11.810;2023-04-22T13:52:49;27.00;44.70
42135;DHT22;28312;43.460;11.810;2023-04-22T13:56:53;26.90;44.30
42135;DHT22;28312;43.460;11.810;2023-04-22T14:00:57;26.90;44.30
42135;DHT22;28312;43.460;11.810;2023-04-22T14:05:00;26.80;44.50
42135;DHT22;28312;43.460;11.810;2023-04-22T14:09:04;26.80;44.20
42135;DHT22;28312;43.460;11.810;2023-04-22T14:13:08;26.60;43.60
42135;DHT22;28312;43.460;11.810;2023-04-22T14:17:11;26.20;44.00
42135;DHT22;28312;43.460;11.810;2023-04-22T14:21:15;26.10;44.10
42135;DHT22;28312;43.460;11.810;2023-04-22T14:25:18;26.00;43.90
42135;DHT22;28312;43.460;11.810;2023-04-22T14:29:22;25.80;44.30
42135;DHT22;28312;43.460;11.810;2023-04-22T14:33:26;25.70;44.20
42135;DHT22;28312;43.460;11.810;2023-04-22T14:37:29;25.80;44.50
42135;DHT22;28312;43.460;11.810;2023-04-22T14:41:37;25.80;44.20
42135;DHT22;28312;43.460;11.810;2023-04-22T14:45:40;25.70;44.50
42135;DHT22;28312;43.460;11.810;2023-04-22T14:49:44;25.60;44.30
42135;DHT22;28312;43.460;11.810;2023-04-22T14:53:48;25.40;44.50
42135;DHT22;28312;43.460;11.810;2023-04-22T14:57:53;25.30;44.60
42135;DHT22;28312;43.460;11.810;2023-04-22T15:02:00;25.20;44.40
42135;DHT22;28312;43.460;11.810;2023-04-22T15:06:03;25.10;44.40
42135;DHT22;28312;43.460;11.810;2023-04-22T15:10:07;25.00;44.60
42135;DHT22;28312;43.460;11.810;2023-04-22T15:14:11;25.00;44.70
42135;DHT22;28312;43.460;11.810;2023-04-22T15:18:19;25.00;44.70
42135;DHT22;28312;43.460;11.810;2023-04-22T15:22:23;25.00;44.70
42135;DHT22;28312;43.460;11.810;2023-04-22T15:26:27;25.00;44.70
42135;DHT22;28312;43.460;11.810;2023-04-22T15:30:31;24.90;44.70
42135;DHT22;28312;43.460;11.810;2023-04-22T15:34:34;24.90;44.80
42135;DHT22;28312;43.460;11.810;2023-04-22T15:38:38;24.80;44.70
42135;DHT22;28312;43.460;11.810;2023-04-22T15:42:42;24.70;44.80
42135;DHT22;28312;43.460;11.810;2023-04-22T15:46:45;24.80;45.00
42135;DHT22;28312;43.460;11.810;2023-04-22T15:50:49;24.80;45.10
42135;DHT22;28312;43.460;11.810;2023-04-22T15:54:53;24.80;45.20
42135;DHT22;28312;43.460;11.810;2023-04-22T15:58:59;24.90;45.20
42135;DHT22;28312;43.460;11.810;2023-04-22T16:03:02;25.00;45.10
42135;DHT22;28312;43.460;11.810;2023-04-22T16:07:06;25.00;45.10
42135;DHT22;28312;43.460;11.810;2023-04-22T16:11:12;25.00;45.20
42135;DHT22;28312;43.460;11.810;2023-04-22T16:15:19;24.90;45.30
42135;DHT22;28312;43.460;11.810;2023-04-22T16:19:25;24.80;45.30
42135;DHT22;28312;43.460;11.810;2023-04-22T16:23:29;24.70;45.30
42135;DHT22;28312;43.460;11.810;2023-04-22T16:27:33;24.60;45.20
42135;DHT22;28312;43.460;11.810;2023-04-22T16:31:36;24.40;45.20
42135;DHT22;28312;43.460;11.810;2023-04-22T16:35:40;24.10;45.20
42135;DHT22;28312;43.460;11.810;2023-04-22T16:39:45;24.00;45.30
42135;DHT22;28312;43.460;11.810;2023-04-22T16:43:50;23.70;45.40
42135;DHT22;28312;43.460;11.810;2023-04-22T16:47:53;23.60;45.50
42135;DHT22;28312;43.460;11.810;2023-04-22T16:51:57;23.40;45.60
42135;DHT22;28312;43.460;11.810;2023-04-22T16:56:00;23.20;45.70
42135;DHT22;28312;43.460;11.810;2023-04-22T17:00:05;23.10;45.80
42135;DHT22;28312;43.460;11.810;2023-04-22T17:04:09;23.00;45.90
42135;DHT22;28312;43.460;11.810;2023-04-22T17:08:13;22.90;45.80
42135;DHT22;28312;43.460;11.810;2023-04-22T17:12:19;22.70;45.70
42135;DHT22;28312;43.460;11.810;2023-04-22T17:16:22;22.60;45.90
42135;DHT22;28312;43.460;11.810;2023-04-22T17:20:26;22.50;46.00
42135;DHT22;28312;43.460;11.810;2023-04-22T17:24:30;22.40;46.00
42135;DHT22;28312;43.460;11.810;2023-04-22T17:28:37;22.30;46.00
42135;DHT22;28312;43.460;11.810;2023-04-22T17:32:40;22.20;46.00
42135;DHT22;28312;43.460;11.810;2023-04-22T17:36:44;22.00;46.10
42135;DHT22;28312;43.460;11.810;2023-04-22T17:40:47;21.80;46.20
42135;DHT22;28312;43.460;11.810;2023-04-22T17:44:51;21.60;46.30
42135;DHT22;28312;43.460;11.810;2023-04-22T17:48:54;21.40;46.40
42135;DHT22;28312;43.460;11.810;2023-04-22T17:52:58;21.10;46.50
42135;DHT22;28312;43.460;11.810;2023-04-22T17:57:02;20.80;46.60
42135;DHT22;28312;43.460;11.810;2023-04-22T18:01:06;20.50;46.70
42135;DHT22;28312;43.460;11.810;2023-04-22T18:05:12;20.30;46.70
42135;DHT22;28312;43.460;11.810;2023-04-22T18:09:16;20.10;47.00
42135;DHT22;28312;43.460;11.810;2023-04-22T18:13:19;19.90;47.30
42135;DHT22;28312;43.460;11.810;2023-04-22T18:17:23;19.70;47.50
42135;DHT22;28312;43.460;11.810;2023-04-22T18:21:27;19.60;47.80
42135;DHT22;28312;43.460;11.810;2023-04-22T18:25:31;19.50;48.00
42135;DHT22;28312;43.460;11.810;2023-04-22T18:29:45;19.40;48.30
42135;DHT22;28312;43.460;11.810;2023-04-22T18:33:50;19.20;48.50
42135;DHT22;28312;43.460;11.810;2023-04-22T18:37:53;19.10;48.60
42135;DHT22;28312;43.460;11.810;2023-04-22T18:41:57;19.10;48.80
42135;DHT22;28312;43.460;11.810;2023-04-22T18:46:01;19.00;48.90
42135;DHT22;28312;43.460;11.810;2023-04-22T18:50:05;18.90;49.20
42135;DHT22;28312;43.460;11.810;2023-04-22T18:54:08;18.70;49.40
42135;DHT22;28312;43.460;11.810;2023-04-22T18:58:13;18.70;49.50
42135;DHT22;28312;43.460;11.810;2023-04-22T19:02:16;18.60;49.60
42135;DHT22;28312;43.460;11.810;2023-04-22T19:06:20;18.50;49.70
42135;DHT22;28312;43.460;11.810;2023-04-22T19:10:23;18.30;49.80
42135;DHT22;28312;43.460;11.810;2023-04-22T19:14:27;18.20;49.90
42135;DHT22;28312;43.460;11.810;2023-04-22T19:18:31;18.10;50.00
42135;DHT22;28312;43.460;11.810;2023-04-22T19:22:34;18.10;50.00
42135;DHT22;28312;43.460;11.810;2023-04-22T19:26:37;18.00;50.10
42135;DHT22;28312;43.460;11.810;2023-04-22T19:30:42;17.90;50.10
42135;DHT22;28312;43.460;11.810;2023-04-22T19:34:45;17.90;50.20
42135;DHT22;28312;43.460;11.810;2023-04-22T19:38:49;17.80;50.20
42135;DHT22;28312;43.460;11.810;2023-04-22T19:42:53;17.70;50.20
42135;DHT22;28312;43.460;11.810;2023-04-22T19:46:57;17.70;50.20
42135;DHT22;28312;43.460;11.810;2023-04-22T19:51:04;17.70;50.20
42135;DHT22;28312;43.460;11.810;2023-04-22T19:55:09;17.70;50.10
42135;DHT22;28312;43.460;11.810;2023-04-22T19:59:14;17.70;50.10
42135;DHT22;28312;43.460;11.810;2023-04-22T20:03:18;17.60;50.10
42135;DHT22;28312;43.460;11.810;2023-04-22T20:07:22;17.50;50.20
42135;DHT22;28312;43.460;11.810;2023-04-22T20:11:26;17.40;50.30
42135;DHT22;28312;43.460;11.810;2023-04-22T20:15:31;17.30;50.40
42135;DHT22;28312;43.460;11.810;2023-04-22T20:19:35;17.30;50.50
42135;DHT22;28312;43.460;11.810;2023-04-22T20:23:39;17.20;50.50
42135;DHT22;28312;43.460;11.810;2023-04-22T20:27:44;17.10;50.40
42135;DHT22;28312;43.460;11.810;2023-04-22T20:31:48;17.10;50.50
42135;DHT22;28312;43.460;11.810;2023-04-22T20:35:52;17.00;50.50
42135;DHT22;28312;43.460;11.810;2023-04-22T20:39:58;16.90;50.50
42135;DHT22;28312;43.460;11.810;2023-04-22T20:44:09;16.90;50.50
42135;DHT22;28312;43.460;11.810;2023-04-22T20:48:12;16.70;50.70
42135;DHT22;28312;43.460;11.810;2023-04-22T20:52:16;16.70;50.70
42135;DHT22;28312;43.460;11.810;2023-04-22T20:56:19;16.60;50.70
42135;DHT22;28312;43.460;11.810;2023-04-22T21:00:23;16.60;50.70
42135;DHT22;28312;43.460;11.810;2023-04-22T21:04:27;16.50;50.70
42135;DHT22;28312;43.460;11.810;2023-04-22T21:08:32;16.40;50.70
42135;DHT22;28312;43.460;11.810;2023-04-22T21:12:40;16.40;50.80
42135;DHT22;28312;43.460;11.810;2023-04-22T21:16:59;16.30;50.80
42135;DHT22;28312;43.460;11.810;2023-04-22T21:21:05;16.20;50.90
42135;DHT22;28312;43.460;11.810;2023-04-22T21:25:10;16.20;51.00
42135;DHT22;28312;43.460;11.810;2023-04-22T21:29:14;16.10;51.00
42135;DHT22;28312;43.460;11.810;2023-04-22T21:33:18;16.10;51.00
42135;DHT22;28312;43.460;11.810;2023-04-22T21:37:23;16.00;51.00
42135;DHT22;28312;43.460;11.810;2023-04-22T21:41:26;15.90;51.00
42135;DHT22;28312;43.460;11.810;2023-04-22T21:45:35;15.70;51.10
42135;DHT22;28312;43.460;11.810;2023-04-22T21:49:38;15.60;51.10
42135;DHT22;28312;43.460;11.810;2023-04-22T21:53:42;15.60;51.10
42135;DHT22;28312;43.460;11.810;2023-04-22T21:57:46;15.40;51.10
42135;DHT22;28312;43.460;11.810;2023-04-22T22:01:50;15.20;51.10
42135;DHT22;28312;43.460;11.810;2023-04-22T22:05:54;15.00;51.20
42135;DHT22;28312;43.460;11.810;2023-04-22T22:09:57;14.60;51.70
42135;DHT22;28312;43.460;11.810;2023-04-22T22:14:01;14.40;51.90
42135;DHT22;28312;43.460;11.810;2023-04-22T22:18:05;14.10;51.90
42135;DHT22;28312;43.460;11.810;2023-04-22T22:22:09;13.80;52.10
42135;DHT22;28312;43.460;11.810;2023-04-22T22:26:13;13.70;52.10
42135;DHT22;28312;43.460;11.810;2023-04-22T22:30:18;13.50;52.40
42135;DHT22;28312;43.460;11.810;2023-04-22T22:34:23;13.40;52.50
42135;DHT22;28312;43.460;11.810;2023-04-22T22:38:26;13.40;52.60
42135;DHT22;28312;43.460;11.810;2023-04-22T22:42:30;13.40;52.70
42135;DHT22;28312;43.460;11.810;2023-04-22T22:46:34;13.40;52.70
42135;DHT22;28312;43.460;11.810;2023-04-22T22:50:39;13.20;52.70
42135;DHT22;28312;43.460;11.810;2023-04-22T22:54:43;12.90;52.80
42135;DHT22;28312;43.460;11.810;2023-04-22T22:58:46;12.70;52.90
42135;DHT22;28312;43.460;11.810;2023-04-22T23:02:50;12.70;53.00
42135;DHT22;28312;43.460;11.810;2023-04-22T23:06:55;12.50;53.00
42135;DHT22;28312;43.460;11.810;2023-04-22T23:11:01;12.40;53.00
42135;DHT22;28312;43.460;11.810;2023-04-22T23:15:05;12.20;53.10
42135;DHT22;28312;43.460;11.810;2023-04-22T23:19:14;12.00;53.30
42135;DHT22;28312;43.460;11.810;2023-04-22T23:23:19;12.00;53.50
42135;DHT22;28312;43.460;11.810;2023-04-22T23:27:26;11.80;53.50
42135;DHT22;28312;43.460;11.810;2023-04-22T23:31:31;11.60;53.60
42135;DHT22;28312;43.460;11.810;2023-04-22T23:35:40;11.30;53.90
42135;DHT22;28312;43.460;11.810;2023-04-22T23:39:43;11.20;54.10
42135;DHT22;28312;43.460;11.810;2023-04-22T23:43:47;11.10;54.20
42135;DHT22;28312;43.460;11.810;2023-04-22T23:47:50;11.00;54.20
42135;DHT22;28312;43.460;11.810;2023-04-22T23:51:54;11.00;54.20
42135;DHT22;28312;43.460;11.810;2023-04-22T23:55:58;10.90;54.20
